MET'MAP v2.0
soon released !

Expected late october,
this new version will be
more efficient, smarter,
and hosted on a brand new
server x3 powerfull...
...and still free !


Not compatible ?
Try the mobile version !

LOG IN : | Subscribe | Disclaimer | Who is Orbifly ? |
ICAO code :

TAF - EGUW RAF Wattisham - 24 Feb 2020 12:09 UTC
Data Sources :     NOAA   


- Airport Elevation : 284 ft
- No reported NOTAMs.


EGUW - RAF Wattisham

Latest METAR recorded : 2015/08/11 07:50 EGUW 110750Z 33006KT 9999 FEW040 BKN140 14/10 Q1019 BLU NOSIG
TAF TAF EGUW
Valid from the 24 at 09:00 until the 24 at 18:00 UTC


240738Z 2409/2418 24014KT 3000 RADZ OVC003
BECMG 2409/2411 24020G30KT 9999 -RA BKN008
TEMPO 2411/2415 4000 RA
BECMG 2415/2418 SCT030

Source NOAA


MET'MAP, your aeronautical weather chart ! - Copyright ORBIFLY December 2007

Programming & Development : Alexandra Zaïnal
Co-Developer : Marc-Olivier Méhu
Technical & hardware support : Manuel Goepfert
Concept & Financing : Baudouin d'Aumeries